Time;durP1;ratioP1;P1;durP2;ratioP2;P2;SDS_P1;SDS_P2;PMS_P1;PMS_P2;Temp;Humidity;BMP_temperature;BMP_pressure;BME280_temperature;BME280_humidity;BME280_pressure;Samples;Min_cycle;Max_cycle;Signal;HPM_P1;HPM_P2
2021/10/04 00:01:40;;;;;;;4.95;1.77;;;11.40;83.30;;;;;;5011877;28;20259;-83
2021/10/04 00:04:07;;;;;;;12.57;2.20;;;11.40;83.30;;;;;;5012206;28;20100;-84
2021/10/04 00:06:34;;;;;;;5.97;1.90;;;11.40;83.30;;;;;;5012040;28;20526;-83
2021/10/04 00:09:01;;;;;;;5.97;1.80;;;11.30;83.30;;;;;;5012131;28;20053;-83
2021/10/04 00:11:27;;;;;;;4.93;1.52;;;11.30;83.30;;;;;;5012017;28;20058;-83
2021/10/04 00:13:54;;;;;;;6.68;1.95;;;11.30;83.30;;;;;;5012223;28;20056;-83
2021/10/04 00:16:21;;;;;;;9.40;1.77;;;11.30;83.30;;;;;;5011706;28;20042;-83
2021/10/04 00:18:48;;;;;;;7.90;1.85;;;11.30;83.30;;;;;;5011833;28;20422;-83
2021/10/04 00:21:15;;;;;;;7.15;1.83;;;11.20;83.30;;;;;;5011809;28;20053;-83
2021/10/04 00:23:42;;;;;;;4.05;1.75;;;11.20;83.30;;;;;;5011686;28;20469;-83
2021/10/04 00:26:10;;;;;;;10.45;2.20;;;11.20;83.30;;;;;;5011742;28;20050;-83
2021/10/04 00:28:37;;;;;;;4.88;1.70;;;11.20;83.30;;;;;;5012022;28;20065;-83
2021/10/04 00:31:04;;;;;;;9.40;1.90;;;11.20;83.30;;;;;;5011614;28;20124;-83
2021/10/04 00:33:31;;;;;;;6.95;2.03;;;11.20;83.30;;;;;;5011526;28;20100;-83
2021/10/04 00:35:58;;;;;;;3.15;1.40;;;11.20;83.20;;;;;;5011538;28;20115;-83
2021/10/04 00:38:25;;;;;;;10.45;1.88;;;11.20;83.30;;;;;;5011513;28;20123;-83
2021/10/04 00:40:52;;;;;;;9.07;2.15;;;11.10;83.20;;;;;;5011610;28;20050;-83
2021/10/04 00:43:20;;;;;;;8.75;1.98;;;11.10;83.20;;;;;;5011441;28;20096;-83
2021/10/04 00:45:49;;;;;;;5.68;1.83;;;11.10;83.20;;;;;;5011299;28;20042;-83
2021/10/04 00:48:16;;;;;;;8.75;1.55;;;11.10;83.10;;;;;;5011223;28;20467;-83
2021/10/04 00:50:44;;;;;;;8.05;2.03;;;11.10;83.10;;;;;;5011407;28;20096;-83
2021/10/04 00:53:11;;;;;;;8.75;1.88;;;11.00;83.10;;;;;;5011530;28;20054;-83
2021/10/04 00:55:38;;;;;;;9.85;1.85;;;11.00;83.00;;;;;;5011402;28;20050;-83
2021/10/04 00:58:05;;;;;;;8.38;1.95;;;11.00;83.00;;;;;;4989359;28;20042;-83
2021/10/04 01:00:33;;;;;;;5.55;1.60;;;11.00;83.00;;;;;;5010958;28;20411;-83
2021/10/04 01:03:01;;;;;;;5.93;2.05;;;10.90;83.00;;;;;;5011128;28;20111;-83
2021/10/04 01:05:32;;;;;;;6.45;1.67;;;10.90;82.90;;;;;;5010224;28;20042;-83
2021/10/04 01:07:59;;;;;;;5.45;1.70;;;11.00;82.90;;;;;;5011647;28;20518;-83
2021/10/04 01:10:26;;;;;;;7.00;1.60;;;11.00;82.80;;;;;;5010440;28;20042;-83
2021/10/04 01:12:54;;;;;;;5.10;1.95;;;10.90;82.70;;;;;;4993570;28;20041;-83
2021/10/04 01:15:21;;;;;;;5.00;1.80;;;10.90;82.60;;;;;;5010884;28;20046;-83
2021/10/04 01:17:48;;;;;;;5.32;1.50;;;10.90;82.70;;;;;;5010870;28;20042;-83
2021/10/04 01:20:21;;;;;;;12.32;1.90;;;10.90;82.60;;;;;;5010944;28;20046;-83
2021/10/04 01:22:49;;;;;;;9.68;2.25;;;10.90;82.60;;;;;;5009395;28;20054;-84
2021/10/04 01:25:17;;;;;;;8.13;2.00;;;10.90;82.60;;;;;;5010384;28;20100;-83
2021/10/04 01:27:46;;;;;;;5.38;1.85;;;10.90;82.50;;;;;;5010652;28;20104;-84
2021/10/04 01:30:15;;;;;;;6.20;1.70;;;10.90;82.50;;;;;;5010751;28;20046;-83
2021/10/04 01:32:42;;;;;;;4.03;1.50;;;10.90;82.50;;;;;;5010753;28;20107;-83
2021/10/04 01:35:10;;;;;;;4.13;1.45;;;10.90;82.50;;;;;;5011003;28;20061;-83
2021/10/04 01:37:38;;;;;;;8.70;1.73;;;10.80;82.50;;;;;;4988974;28;20057;-82
2021/10/04 01:40:06;;;;;;;7.80;1.90;;;10.80;82.50;;;;;;5010180;28;20104;-84
2021/10/04 01:42:34;;;;;;;4.93;1.50;;;10.80;82.50;;;;;;5010594;28;20041;-84
2021/10/04 01:45:03;;;;;;;7.03;1.52;;;10.70;82.60;;;;;;5010641;28;20050;-83
2021/10/04 01:47:30;;;;;;;11.90;2.25;;;10.70;82.60;;;;;;5010557;28;20058;-83
2021/10/04 01:49:57;;;;;;;6.35;1.88;;;10.70;82.60;;;;;;5011086;28;20050;-83
2021/10/04 01:52:24;;;;;;;3.85;1.60;;;10.70;82.60;;;;;;5010367;28;20112;-83
2021/10/04 01:54:53;;;;;;;8.52;1.52;;;10.70;82.60;;;;;;5010170;28;20042;-83
2021/10/04 01:57:20;;;;;;;8.63;1.92;;;10.70;82.60;;;;;;5010315;28;20046;-83
2021/10/04 01:59:47;;;;;;;8.13;1.40;;;10.60;82.70;;;;;;5010342;28;20042;-83
2021/10/04 02:02:14;;;;;;;6.00;1.80;;;10.70;82.80;;;;;;5010509;28;20104;-83
2021/10/04 02:04:41;;;;;;;5.20;1.42;;;10.70;82.80;;;;;;4989196;28;20129;-83
2021/10/04 02:07:08;;;;;;;6.22;1.33;;;10.60;82.70;;;;;;5010353;28;20042;-84
2021/10/04 02:09:35;;;;;;;7.28;1.38;;;10.60;82.80;;;;;;5009878;28;20053;-83
2021/10/04 02:12:02;;;;;;;6.75;1.83;;;10.60;82.70;;;;;;5010419;28;20042;-83
2021/10/04 02:14:29;;;;;;;9.02;1.90;;;10.60;82.70;;;;;;5010356;28;20046;-83
2021/10/04 02:16:56;;;;;;;5.75;1.70;;;10.60;82.70;;;;;;5012053;28;20049;-83
2021/10/04 02:19:23;;;;;;;8.93;1.90;;;10.60;82.80;;;;;;5014086;28;20041;-83
2021/10/04 02:21:49;;;;;;;7.00;1.50;;;10.60;82.80;;;;;;5014045;28;20050;-83
2021/10/04 02:24:16;;;;;;;10.52;1.77;;;10.50;82.70;;;;;;5013525;28;20042;-83
2021/10/04 02:26:43;;;;;;;7.93;1.70;;;10.50;82.70;;;;;;5014082;28;20050;-83
2021/10/04 02:29:10;;;;;;;10.77;1.65;;;10.50;82.70;;;;;;5014135;28;20485;-83
2021/10/04 02:31:37;;;;;;;7.72;1.35;;;10.50;82.70;;;;;;5014271;28;20061;-83
2021/10/04 02:34:04;;;;;;;5.60;1.50;;;10.50;82.60;;;;;;5013780;28;20050;-83
2021/10/04 02:36:30;;;;;;;5.90;1.60;;;10.50;82.60;;;;;;5013406;28;20104;-83
2021/10/04 02:38:57;;;;;;;6.13;1.30;;;10.50;82.60;;;;;;5013445;28;20053;-83
2021/10/04 02:41:24;;;;;;;3.72;1.30;;;10.50;82.60;;;;;;4996408;28;20108;-83
2021/10/04 02:43:51;;;;;;;5.50;1.40;;;10.40;82.50;;;;;;5014205;28;20522;-83
2021/10/04 02:46:18;;;;;;;4.32;1.40;;;10.40;82.50;;;;;;5013523;28;20107;-83
2021/10/04 02:48:45;;;;;;;8.18;1.77;;;10.40;82.50;;;;;;4991876;28;20561;-83
2021/10/04 02:51:12;;;;;;;8.38;1.60;;;10.40;82.50;;;;;;5013092;28;20572;-83
2021/10/04 02:53:39;;;;;;;4.82;1.42;;;10.40;82.50;;;;;;5013521;28;20038;-83
2021/10/04 02:56:06;;;;;;;4.95;1.30;;;10.40;82.50;;;;;;5014145;28;20491;-84
2021/10/04 02:58:34;;;;;;;5.35;1.33;;;10.40;82.50;;;;;;5013334;28;20049;-83
2021/10/04 03:01:01;;;;;;;6.28;1.50;;;10.40;82.50;;;;;;5013158;28;20507;-83
2021/10/04 03:03:29;;;;;;;10.65;1.85;;;10.30;82.50;;;;;;5013327;28;20054;-84
2021/10/04 03:05:55;;;;;;;9.15;2.13;;;10.30;82.50;;;;;;5013006;28;20108;-83
2021/10/04 03:08:22;;;;;;;8.82;1.42;;;10.30;82.60;;;;;;5013296;28;20049;-85
2021/10/04 03:10:49;;;;;;;8.10;1.60;;;10.30;82.60;;;;;;5013700;28;20388;-83
2021/10/04 03:13:16;;;;;;;5.88;1.55;;;10.20;82.60;;;;;;5013048;28;20100;-84
2021/10/04 03:15:43;;;;;;;6.00;1.48;;;10.20;82.70;;;;;;5013011;28;20092;-84
2021/10/04 03:18:11;;;;;;;7.45;1.40;;;10.20;82.60;;;;;;5012929;28;20046;-83
2021/10/04 03:20:39;;;;;;;11.48;1.60;;;10.20;82.60;;;;;;5012696;28;20045;-84
2021/10/04 03:23:07;;;;;;;7.40;1.75;;;10.20;82.60;;;;;;5013580;28;20511;-83
2021/10/04 03:25:35;;;;;;;4.93;1.15;;;10.10;82.70;;;;;;5013091;28;20091;-83
2021/10/04 03:28:02;;;;;;;11.90;1.58;;;10.20;82.70;;;;;;5011895;28;20112;-83
2021/10/04 03:30:29;;;;;;;5.50;1.50;;;10.10;82.70;;;;;;5012760;28;20104;-83
2021/10/04 03:32:56;;;;;;;7.18;1.40;;;10.10;82.70;;;;;;5012902;28;20077;-83
2021/10/04 03:35:23;;;;;;;6.43;1.50;;;10.10;82.70;;;;;;5012473;28;20049;-83
2021/10/04 03:37:50;;;;;;;7.55;1.33;;;10.10;82.70;;;;;;5013025;28;20054;-83
2021/10/04 03:40:17;;;;;;;4.03;1.35;;;10.10;82.70;;;;;;5012525;28;20561;-83
2021/10/04 03:42:46;;;;;;;9.50;1.45;;;10.00;82.80;;;;;;5012590;28;20107;-83
2021/10/04 03:45:14;;;;;;;10.32;1.80;;;10.00;82.90;;;;;;5012582;28;20506;-83
2021/10/04 03:47:42;;;;;;;4.95;1.40;;;10.00;82.90;;;;;;5012581;28;20046;-83
2021/10/04 03:50:11;;;;;;;9.43;1.52;;;9.90;83.00;;;;;;5012467;28;20045;-83
2021/10/04 03:52:39;;;;;;;12.52;1.98;;;9.90;83.00;;;;;;5011698;28;20132;-83
2021/10/04 03:55:08;;;;;;;15.32;1.77;;;9.90;83.10;;;;;;5012305;28;20101;-83
2021/10/04 03:57:37;;;;;;;9.48;1.63;;;9.90;83.10;;;;;;5012238;28;20045;-85
2021/10/04 04:00:11;;;;;;;9.23;1.67;;;9.90;83.20;;;;;;5012306;28;20050;-83
2021/10/04 04:02:38;;;;;;;6.07;1.65;;;9.90;83.20;;;;;;4997137;28;20092;-83
2021/10/04 04:05:06;;;;;;;8.98;1.73;;;9.90;83.20;;;;;;5012505;28;20052;-83
2021/10/04 04:07:33;;;;;;;7.22;1.67;;;9.90;83.20;;;;;;5012271;28;20042;-84
2021/10/04 04:09:59;;;;;;;9.32;1.70;;;9.90;83.20;;;;;;5011973;28;20100;-83
2021/10/04 04:12:26;;;;;;;9.07;1.63;;;9.90;83.30;;;;;;5012025;28;20108;-83
2021/10/04 04:14:53;;;;;;;8.73;1.70;;;9.90;83.30;;;;;;5012034;28;20072;-83
2021/10/04 04:17:20;;;;;;;7.68;1.60;;;9.90;83.20;;;;;;5012033;28;20054;-83
2021/10/04 04:19:47;;;;;;;7.57;1.63;;;9.90;83.20;;;;;;5010173;28;20104;-83
2021/10/04 04:22:15;;;;;;;6.50;1.20;;;9.80;83.20;;;;;;5011777;28;20588;-83
2021/10/04 04:24:43;;;;;;;8.73;1.50;;;9.90;83.20;;;;;;5011824;28;20050;-83
2021/10/04 04:27:10;;;;;;;11.30;1.60;;;9.80;83.30;;;;;;5011754;28;20041;-83
2021/10/04 04:29:38;;;;;;;12.77;1.73;;;9.80;83.30;;;;;;5011736;28;20584;-83
2021/10/04 04:32:08;;;;;;;9.00;1.67;;;9.80;83.30;;;;;;5012465;28;20050;-83
2021/10/04 04:34:35;;;;;;;12.55;2.22;;;9.80;83.30;;;;;;5011194;28;20564;-83
2021/10/04 04:37:03;;;;;;;5.50;1.25;;;9.80;83.40;;;;;;5011345;28;20104;-84
2021/10/04 04:39:32;;;;;;;10.90;1.70;;;9.70;83.40;;;;;;4993858;28;20041;-84
2021/10/04 04:41:59;;;;;;;6.20;1.30;;;9.70;83.40;;;;;;5011550;28;20419;-83
2021/10/04 04:44:26;;;;;;;9.55;1.67;;;9.70;83.50;;;;;;5011556;28;20482;-84
2021/10/04 04:46:53;;;;;;;13.02;1.60;;;9.60;83.50;;;;;;5011969;28;20572;-83
2021/10/04 04:49:25;;;;;;;7.28;1.13;;;9.60;83.60;;;;;;5011020;28;20046;-83
2021/10/04 04:51:57;;;;;;;9.48;1.75;;;9.60;83.60;;;;;;5011218;28;20042;-83
2021/10/04 04:54:25;;;;;;;7.32;1.55;;;9.70;83.60;;;;;;5011149;28;20495;-83
2021/10/04 04:56:54;;;;;;;10.02;1.50;;;9.60;83.60;;;;;;5011349;28;20498;-83
2021/10/04 04:59:22;;;;;;;7.13;1.42;;;9.60;83.60;;;;;;5011101;28;20053;-83
2021/10/04 05:01:49;;;;;;;6.68;1.52;;;9.60;83.60;;;;;;5011444;28;20046;-83
2021/10/04 05:04:16;;;;;;;9.90;1.60;;;9.50;83.60;;;;;;5010976;28;20510;-83
2021/10/04 05:06:43;;;;;;;6.90;1.30;;;9.60;83.60;;;;;;5011148;28;20053;-83
2021/10/04 05:09:11;;;;;;;11.02;1.77;;;9.50;83.60;;;;;;4989140;28;20042;-84
2021/10/04 05:11:38;;;;;;;12.20;2.38;;;9.50;83.60;;;;;;5011084;28;20041;-83
2021/10/04 05:14:05;;;;;;;7.60;1.55;;;9.50;83.60;;;;;;5010222;28;20054;-83
2021/10/04 05:16:32;;;;;;;8.82;2.22;;;9.50;83.60;;;;;;5017144;28;20103;-84
2021/10/04 05:18:59;;;;;;;8.70;1.92;;;9.50;83.60;;;;;;4995174;28;20049;-83
2021/10/04 05:21:26;;;;;;;7.53;2.08;;;9.50;83.60;;;;;;5005945;28;20064;-83
2021/10/04 05:23:53;;;;;;;9.48;3.28;;;9.50;83.60;;;;;;5001096;28;20120;-83
2021/10/04 05:26:20;;;;;;;14.15;2.10;;;9.50;83.70;;;;;;4994340;28;20046;-83
2021/10/04 05:28:47;;;;;;;9.55;2.17;;;9.50;83.70;;;;;;4996852;28;20561;-84
2021/10/04 05:31:14;;;;;;;10.25;2.65;;;9.50;83.60;;;;;;5001420;28;20045;-83
2021/10/04 05:33:41;;;;;;;8.25;2.28;;;9.50;83.70;;;;;;4985938;28;20057;-83
2021/10/04 05:36:08;;;;;;;10.35;1.88;;;9.50;83.70;;;;;;4997191;28;20053;-83
2021/10/04 05:38:35;;;;;;;10.88;2.08;;;9.50;83.60;;;;;;4993467;28;20050;-83
2021/10/04 05:41:03;;;;;;;10.88;2.40;;;9.40;83.60;;;;;;4992384;28;20050;-82
2021/10/04 05:43:32;;;;;;;8.65;2.00;;;9.40;83.60;;;;;;4979522;28;20066;-83
2021/10/04 05:46:00;;;;;;;9.02;2.20;;;9.50;83.60;;;;;;4996526;28;20046;-83
2021/10/04 05:48:27;;;;;;;8.35;1.92;;;9.40;83.60;;;;;;4996434;28;20046;-83
2021/10/04 05:50:54;;;;;;;12.57;2.15;;;9.40;83.60;;;;;;4995459;28;20476;-83
2021/10/04 05:53:21;;;;;;;8.50;1.65;;;9.40;83.60;;;;;;5000606;28;20085;-84
2021/10/04 05:55:48;;;;;;;12.70;2.00;;;9.40;83.70;;;;;;5003064;28;20054;-84
2021/10/04 05:58:16;;;;;;;6.93;1.70;;;9.40;83.60;;;;;;5003462;28;20108;-83
2021/10/04 06:00:43;;;;;;;6.55;1.77;;;9.40;83.70;;;;;;5002857;28;20071;-83
2021/10/04 06:03:11;;;;;;;11.18;2.17;;;9.40;83.70;;;;;;5000379;28;20046;-83
2021/10/04 06:05:38;;;;;;;7.57;1.75;;;9.40;83.70;;;;;;5014070;28;20133;-83
2021/10/04 06:08:04;;;;;;;13.02;2.08;;;9.40;83.80;;;;;;5009892;28;20049;-83
2021/10/04 06:10:32;;;;;;;6.65;1.90;;;9.30;83.90;;;;;;5003347;28;20058;-83
2021/10/04 06:12:59;;;;;;;7.72;1.60;;;9.30;84.00;;;;;;5003279;28;20113;-83
2021/10/04 06:15:26;;;;;;;16.10;1.95;;;9.30;84.00;;;;;;5001839;28;20077;-83
2021/10/04 06:17:53;;;;;;;7.88;1.63;;;9.30;84.00;;;;;;5013427;28;20495;-83
2021/10/04 06:20:20;;;;;;;8.52;2.00;;;9.30;84.00;;;;;;4999079;28;20050;-83
2021/10/04 06:22:48;;;;;;;8.57;1.73;;;9.30;84.00;;;;;;5001714;28;20440;-83
2021/10/04 06:25:16;;;;;;;10.55;2.03;;;9.30;84.10;;;;;;5001277;28;20506;-83
2021/10/04 06:27:49;;;;;;;7.78;1.80;;;9.30;84.10;;;;;;5001403;28;20050;-85
2021/10/04 06:30:17;;;;;;;11.45;2.03;;;9.30;84.20;;;;;;4997877;28;20058;-83
2021/10/04 06:32:44;;;;;;;10.25;1.83;;;9.30;84.20;;;;;;5012867;28;20050;-84
2021/10/04 06:35:11;;;;;;;13.80;1.95;;;9.30;84.30;;;;;;5000179;28;20058;-83
2021/10/04 06:37:39;;;;;;;6.05;1.63;;;9.30;84.40;;;;;;5002345;28;20608;-84
2021/10/04 06:40:06;;;;;;;9.07;2.20;;;9.40;84.50;;;;;;5011351;28;20053;-83
2021/10/04 06:42:35;;;;;;;6.07;1.50;;;9.40;84.60;;;;;;5015086;28;20037;-83
2021/10/04 06:45:02;;;;;;;12.45;1.95;;;9.40;84.60;;;;;;5016230;28;20050;-84
2021/10/04 06:47:29;;;;;;;6.95;1.65;;;9.40;84.60;;;;;;5016582;28;20058;-84
2021/10/04 06:49:56;;;;;;;15.75;1.73;;;9.40;84.70;;;;;;5017006;28;20049;-84
2021/10/04 06:52:23;;;;;;;11.50;2.10;;;9.40;84.80;;;;;;5016536;28;20042;-83
2021/10/04 06:54:50;;;;;;;10.40;1.70;;;9.50;84.80;;;;;;5016344;28;20577;-83
2021/10/04 06:57:17;;;;;;;8.95;1.52;;;9.50;84.80;;;;;;5016344;28;20092;-84
2021/10/04 06:59:44;;;;;;;8.98;1.65;;;9.50;84.90;;;;;;5016121;28;20054;-83
2021/10/04 07:02:11;;;;;;;8.02;1.60;;;9.50;85.00;;;;;;5016546;28;20068;-85
2021/10/04 07:04:38;;;;;;;12.75;1.90;;;9.50;85.00;;;;;;5013684;28;20054;-83
2021/10/04 07:07:06;;;;;;;7.50;1.60;;;9.60;85.00;;;;;;5013186;28;20057;-84
2021/10/04 07:09:33;;;;;;;11.80;1.77;;;9.60;85.00;;;;;;5013155;28;20096;-85
2021/10/04 07:12:00;;;;;;;10.15;1.75;;;9.70;85.10;;;;;;5013254;28;20578;-84
2021/10/04 07:14:27;;;;;;;11.63;2.25;;;9.70;85.20;;;;;;5012865;28;20115;-82
2021/10/04 07:16:53;;;;;;;15.18;2.17;;;9.70;85.20;;;;;;5013715;28;20072;-84
2021/10/04 07:19:20;;;;;;;11.68;2.10;;;9.80;85.30;;;;;;5012775;28;20049;-84
2021/10/04 07:21:52;;;;;;;10.98;1.95;;;9.80;85.30;;;;;;5012957;28;20458;-84
2021/10/04 07:24:22;;;;;;;14.70;2.35;;;9.80;85.30;;;;;;5012827;28;20046;-85
2021/10/04 07:26:50;;;;;;;12.95;2.00;;;9.90;85.30;;;;;;5012765;28;20121;-85
2021/10/04 07:29:17;;;;;;;14.70;1.92;;;9.90;85.30;;;;;;5012922;28;20053;-84
2021/10/04 07:31:45;;;;;;;8.82;1.63;;;9.90;85.30;;;;;;5013350;28;20103;-84
2021/10/04 07:34:13;;;;;;;11.23;1.90;;;10.00;85.40;;;;;;5012846;28;20054;-84
2021/10/04 07:36:40;;;;;;;9.88;1.60;;;10.00;85.40;;;;;;5012531;28;20461;-84
2021/10/04 07:39:08;;;;;;;12.68;2.33;;;10.10;85.50;;;;;;5012576;28;20049;-85
2021/10/04 07:41:35;;;;;;;12.52;3.83;;;10.20;85.50;;;;;;4996770;28;20042;-86
2021/10/04 07:44:02;;;;;;;17.13;2.92;;;10.20;85.50;;;;;;5013197;28;20050;-86
2021/10/04 07:46:29;;;;;;;10.05;4.28;;;10.20;85.50;;;;;;5012427;28;20502;-83
2021/10/04 07:48:56;;;;;;;16.63;2.83;;;10.30;85.40;;;;;;5012346;28;20144;-85
2021/10/04 07:51:23;;;;;;;16.23;2.55;;;10.40;85.40;;;;;;5012430;28;20049;-86
2021/10/04 07:53:51;;;;;;;13.07;2.55;;;10.40;85.40;;;;;;5012490;28;20099;-86
2021/10/04 07:56:19;;;;;;;10.40;2.03;;;10.50;85.50;;;;;;5012192;28;20100;-87
2021/10/04 07:58:46;;;;;;;12.43;2.60;;;10.50;85.50;;;;;;5012625;28;20465;-84
2021/10/04 08:01:14;;;;;;;14.68;3.72;;;10.60;85.50;;;;;;5012174;28;20552;-86
2021/10/04 08:03:41;;;;;;;12.93;2.38;;;10.70;85.60;;;;;;5012037;28;20046;-84
2021/10/04 08:06:08;;;;;;;9.05;2.90;;;10.70;85.60;;;;;;5012341;28;20046;-85
2021/10/04 08:08:36;;;;;;;11.93;3.35;;;10.80;85.70;;;;;;4996614;28;20054;-87
2021/10/04 08:11:03;;;;;;;12.80;2.88;;;10.90;85.60;;;;;;5012411;28;20049;-86
2021/10/04 08:13:30;;;;;;;13.75;2.42;;;10.90;85.70;;;;;;5012031;28;20592;-84
2021/10/04 08:16:00;;;;;;;9.05;2.40;;;11.00;85.60;;;;;;5011327;28;20052;-87
2021/10/04 08:18:30;;;;;;;16.70;3.30;;;11.10;85.50;;;;;;5011677;28;20045;-87
2021/10/04 08:20:57;;;;;;;14.02;2.85;;;11.20;85.60;;;;;;5012002;28;20328;-84
2021/10/04 08:23:24;;;;;;;12.85;2.28;;;11.30;85.50;;;;;;5011952;28;20057;-84
2021/10/04 08:25:51;;;;;;;9.60;2.28;;;11.30;85.40;;;;;;5011989;28;20055;-84
2021/10/04 08:28:17;;;;;;;9.70;2.20;;;11.40;85.40;;;;;;5011646;28;20482;-83
2021/10/04 08:30:45;;;;;;;15.02;2.08;;;11.40;85.50;;;;;;5011626;28;20048;-85
2021/10/04 08:33:12;;;;;;;13.40;2.15;;;11.60;85.40;;;;;;5011645;28;20478;-84
2021/10/04 08:35:39;;;;;;;12.05;2.03;;;11.70;85.30;;;;;;5011662;28;20465;-84
2021/10/04 08:38:06;;;;;;;13.75;2.60;;;11.70;85.20;;;;;;5012174;28;20057;-87
2021/10/04 08:40:33;;;;;;;11.55;2.22;;;11.80;85.30;;;;;;5011200;28;20466;-86
2021/10/04 08:43:00;;;;;;;8.98;2.28;;;11.90;85.30;;;;;;5011515;28;20088;-85
2021/10/04 08:45:28;;;;;;;12.05;1.92;;;12.00;85.20;;;;;;5011386;28;20088;-88
2021/10/04 08:47:59;;;;;;;11.32;2.65;;;12.00;85.00;;;;;;5011448;28;20049;-88
2021/10/04 08:50:28;;;;;;;10.43;2.42;;;12.10;84.80;;;;;;5011298;28;20072;-86
2021/10/04 08:52:55;;;;;;;10.90;1.77;;;12.30;84.80;;;;;;5011869;28;20050;-85
2021/10/04 08:55:22;;;;;;;10.60;1.80;;;12.40;84.70;;;;;;5010936;28;20053;-85
2021/10/04 08:57:49;;;;;;;9.52;2.00;;;12.40;84.70;;;;;;5011124;28;20042;-87
2021/10/04 09:00:17;;;;;;;13.10;1.85;;;12.50;84.40;;;;;;5011058;28;20053;-85
2021/10/04 09:02:45;;;;;;;10.45;1.80;;;12.60;84.00;;;;;;5011259;28;20041;-84
2021/10/04 09:05:20;;;;;;;9.07;2.50;;;12.70;83.80;;;;;;5011406;28;20045;-89
2021/10/04 09:07:48;;;;;;;13.70;2.45;;;12.80;83.60;;;;;;5009622;28;20053;-84
2021/10/04 09:10:18;;;;;;;13.00;1.92;;;12.80;83.50;;;;;;5010645;28;20050;-85
2021/10/04 09:13:08;;;;;;;11.70;1.73;;;12.90;83.50;;;;;;5011023;28;20410;-86
2021/10/04 09:15:48;;;;;;;6.88;1.50;;;13.00;83.50;;;;;;5010916;28;20046;-86
2021/10/04 09:18:15;;;;;;;7.43;1.90;;;13.10;83.50;;;;;;5010873;28;20046;-86
2021/10/04 09:20:53;;;;;;;13.38;1.67;;;13.20;83.10;;;;;;5010982;28;20061;-87
2021/10/04 09:23:56;;;;;;;11.27;2.15;;;13.30;82.70;;;;;;5010705;28;20049;-85
2021/10/04 09:26:26;;;;;;;12.13;2.20;;;13.40;82.30;;;;;;5008531;28;20049;-85
2021/10/04 09:29:10;;;;;;;15.50;2.17;;;13.50;82.40;;;;;;5011445;28;20050;-84
2021/10/04 09:31:38;;;;;;;;;;;13.50;82.10;;;;;;5011439;28;20104;-87
2021/10/04 09:34:14;;;;;;;12.50;2.10;;;13.70;82.20;;;;;;5010712;28;20020;-87
2021/10/04 09:36:44;;;;;;;9.73;1.77;;;13.70;81.70;;;;;;5010364;28;20510;-86
2021/10/04 09:39:16;;;;;;;7.80;1.95;;;13.80;81.50;;;;;;5010082;28;20578;-87
2021/10/04 09:42:13;;;;;;;12.00;1.90;;;13.90;81.50;;;;;;5010766;28;20127;-87
2021/10/04 09:44:52;;;;;;;12.27;1.60;;;13.90;81.20;;;;;;4995508;28;20569;-86
2021/10/04 09:47:37;;;;;;;11.55;2.03;;;14.00;80.90;;;;;;5010710;28;20049;-87
2021/10/04 09:50:11;;;;;;;12.05;2.33;;;14.00;80.90;;;;;;5007009;28;20115;-86
2021/10/04 09:52:49;;;;;;;12.63;1.88;;;14.10;81.00;;;;;;5010378;28;20465;-85
2021/10/04 09:55:18;;;;;;;12.93;2.17;;;14.20;80.90;;;;;;5010502;28;20057;-84
2021/10/04 09:58:15;;;;;;;6.93;1.75;;;14.30;81.00;;;;;;5010454;28;20076;-85
2021/10/04 10:01:00;;;;;;;12.65;2.35;;;14.40;80.50;;;;;;5010430;28;20046;-84
2021/10/04 10:03:32;;;;;;;8.05;1.73;;;14.40;80.30;;;;;;5010393;28;20099;-86
2021/10/04 10:06:00;;;;;;;11.52;2.17;;;14.40;80.10;;;;;;5010531;28;20073;-83
2021/10/04 10:08:28;;;;;;;17.27;2.63;;;14.40;80.10;;;;;;5010035;28;20471;-84
2021/10/04 10:11:00;;;;;;;14.43;2.05;;;14.40;80.20;;;;;;5010907;28;20057;-85
2021/10/04 10:13:29;;;;;;;11.82;2.15;;;14.40;80.00;;;;;;5010357;28;20120;-86
2021/10/04 10:16:17;;;;;;;8.95;2.03;;;14.40;80.30;;;;;;5010179;28;20408;-84
2021/10/04 10:18:54;;;;;;;12.20;2.55;;;14.30;80.50;;;;;;5010215;28;20049;-84
2021/10/04 10:21:32;;;;;;;8.65;1.80;;;14.30;81.30;;;;;;5009929;28;20148;-84
2021/10/04 10:24:00;;;;;;;12.15;2.40;;;14.40;82.00;;;;;;5010320;28;20042;-84
2021/10/04 10:26:37;;;;;;;10.52;2.03;;;14.40;82.40;;;;;;5010371;28;20054;-87
2021/10/04 10:29:13;;;;;;;8.25;1.88;;;14.50;81.90;;;;;;5006625;28;20054;-84
2021/10/04 10:31:55;;;;;;;9.90;1.63;;;14.60;81.70;;;;;;5009792;28;20533;-86
2021/10/04 10:34:27;;;;;;;22.60;2.28;;;14.70;81.30;;;;;;5010034;28;20046;-84
2021/10/04 10:37:09;;;;;;;11.10;1.90;;;14.80;81.30;;;;;;5009648;28;20057;-86
2021/10/04 10:39:47;;;;;;;13.02;2.72;;;14.90;81.20;;;;;;5013619;28;20072;-86
2021/10/04 10:42:23;;;;;;;9.95;2.22;;;15.00;80.70;;;;;;5013744;28;20458;-87
2021/10/04 10:44:56;;;;;;;9.73;1.90;;;15.20;79.90;;;;;;5013894;28;20188;-84
2021/10/04 10:47:38;;;;;;;13.68;2.22;;;15.40;79.20;;;;;;5013688;28;20581;-85
2021/10/04 10:50:24;;;;;;;17.80;2.20;;;15.40;78.80;;;;;;5009888;28;20133;-86
2021/10/04 10:52:56;;;;;;;11.00;1.98;;;15.60;78.80;;;;;;5012511;28;20058;-84
2021/10/04 10:55:23;;;;;;;15.32;2.83;;;15.70;78.60;;;;;;5013522;28;20045;-86
2021/10/04 10:57:59;;;;;;;10.20;1.95;;;15.90;78.50;;;;;;5013447;28;20042;-86
2021/10/04 11:00:29;;;;;;;10.63;1.85;;;15.90;78.10;;;;;;5013390;28;20568;-84
2021/10/04 11:03:03;;;;;;;11.48;2.00;;;16.10;77.80;;;;;;5013429;28;20076;-86
2021/10/04 11:05:39;;;;;;;;;;;16.10;77.70;;;;;;5013555;28;20046;-85
2021/10/04 11:08:17;;;;;;;13.23;1.77;;;16.30;77.10;;;;;;5010082;28;20012;-89
2021/10/04 11:10:51;;;;;;;9.88;1.70;;;16.30;76.80;;;;;;5013392;28;20046;-84
2021/10/04 11:13:24;;;;;;;7.70;1.57;;;16.40;76.50;;;;;;5013237;28;20107;-86
2021/10/04 11:15:52;;;;;;;;;;;16.40;76.60;;;;;;5013479;28;20347;-85
2021/10/04 11:18:20;;;;;;;14.70;2.40;;;16.40;76.20;;;;;;5013013;28;20447;-85
2021/10/04 11:20:47;;;;;;;9.00;1.98;;;16.60;75.70;;;;;;5012755;28;20107;-84
2021/10/04 11:23:19;;;;;;;9.68;2.10;;;16.60;75.40;;;;;;5013158;28;20050;-84
2021/10/04 11:25:50;;;;;;;9.82;1.90;;;16.60;75.20;;;;;;5013396;28;20108;-84
2021/10/04 11:28:35;;;;;;;9.70;1.70;;;16.60;75.10;;;;;;5012763;28;20046;-85
2021/10/04 11:31:04;;;;;;;9.43;2.33;;;16.60;75.60;;;;;;5012739;28;20577;-86
2021/10/04 11:33:39;;;;;;;13.43;1.45;;;16.60;74.70;;;;;;5012412;28;20425;-83
2021/10/04 11:36:09;;;;;;;11.13;1.80;;;16.70;74.60;;;;;;5012611;28;20577;-86
2021/10/04 11:38:51;;;;;;;8.25;1.67;;;16.70;74.50;;;;;;4997224;28;20096;-86
2021/10/04 11:41:57;;;;;;;13.10;2.08;;;16.70;73.90;;;;;;5010519;28;20057;-84
2021/10/04 11:44:27;;;;;;;9.38;1.90;;;16.60;73.70;;;;;;4930191;29;20048;-86
2021/10/04 11:46:59;;;;;;;6.70;1.52;;;16.60;73.90;;;;;;4917440;29;20197;-84
2021/10/04 11:49:30;;;;;;;9.27;1.90;;;16.50;73.80;;;;;;4928584;29;20110;-87
2021/10/04 11:51:59;;;;;;;7.30;1.60;;;16.50;74.10;;;;;;4931394;29;20147;-85
2021/10/04 11:54:53;;;;;;;11.15;2.00;;;16.40;74.30;;;;;;4930911;29;20099;-85
2021/10/04 11:57:21;;;;;;;9.38;1.85;;;16.40;75.00;;;;;;4929789;29;20044;-85
2021/10/04 11:59:58;;;;;;;8.45;1.75;;;16.50;75.50;;;;;;4931212;29;20060;-85
2021/10/04 12:02:32;;;;;;;6.78;1.70;;;16.50;75.60;;;;;;4931032;29;20047;-88
2021/10/04 12:05:21;;;;;;;10.40;1.50;;;16.60;75.30;;;;;;4917111;29;20051;-86
2021/10/04 12:08:09;;;;;;;10.73;1.60;;;16.80;75.20;;;;;;4932851;29;20051;-85
2021/10/04 12:10:57;;;;;;;11.70;2.75;;;16.90;74.70;;;;;;4930447;29;20063;-85
2021/10/04 12:13:34;;;;;;;10.45;1.90;;;17.00;74.00;;;;;;4931057;29;20048;-84
2021/10/04 12:16:06;;;;;;;13.75;1.75;;;17.00;73.50;;;;;;4930881;29;20047;-84
2021/10/04 12:18:44;;;;;;;8.95;1.75;;;17.00;73.40;;;;;;4976449;28;20038;-89
2021/10/04 12:21:24;;;;;;;13.45;1.80;;;17.00;73.70;;;;;;5011823;28;20042;-86
2021/10/04 12:24:11;;;;;;;10.30;2.38;;;17.00;73.30;;;;;;5011933;28;20128;-87
2021/10/04 12:27:19;;;;;;;9.63;2.00;;;17.10;72.70;;;;;;4996568;28;20182;-86
2021/10/04 12:29:57;;;;;;;11.07;1.58;;;17.20;72.40;;;;;;4997509;28;20046;-86
2021/10/04 12:32:37;;;;;;;9.07;1.65;;;17.10;72.60;;;;;;5011461;28;20073;-86
2021/10/04 12:35:19;;;;;;;8.27;1.58;;;17.10;72.40;;;;;;5008260;28;20104;-86
2021/10/04 12:37:52;;;;;;;10.20;1.40;;;17.20;72.50;;;;;;5011869;28;20514;-84
2021/10/04 12:40:41;;;;;;;11.20;1.75;;;17.20;72.90;;;;;;5011346;28;20092;-87
2021/10/04 12:43:15;;;;;;;9.30;1.30;;;17.40;73.00;;;;;;5011523;28;20084;-86
2021/10/04 12:46:09;;;;;;;10.63;1.70;;;17.40;72.30;;;;;;5011078;28;20049;-84
2021/10/04 12:48:39;;;;;;;7.50;1.47;;;17.40;71.40;;;;;;4993929;28;20129;-87
2021/10/04 12:51:09;;;;;;;8.38;1.85;;;17.40;71.60;;;;;;5011461;28;20037;-84
2021/10/04 12:53:49;;;;;;;6.85;1.30;;;17.40;71.50;;;;;;5011564;28;20096;-83
2021/10/04 12:56:28;;;;;;;8.57;1.40;;;17.40;71.80;;;;;;5009036;28;20050;-83
2021/10/04 12:59:05;;;;;;;7.38;1.38;;;17.30;72.00;;;;;;4993205;28;20045;-83
2021/10/04 13:01:34;;;;;;;8.75;1.40;;;17.20;72.20;;;;;;5010781;28;20053;-87